createdAt,value
2019-04-30T00:00:18.329Z,100788.77
2019-04-30T00:03:06.591Z,100784.70
2019-04-30T00:05:38.154Z,100792.86
2019-04-30T00:08:11.180Z,100796.03
2019-04-30T00:10:45.386Z,100795.07
2019-04-30T00:13:20.952Z,100786.39
2019-04-30T00:15:57.490Z,100797.44
2019-04-30T00:18:30.716Z,100798.20
2019-04-30T00:21:01.189Z,100803.73
2019-04-30T00:23:35.940Z,100804.72
2019-04-30T00:26:10.354Z,100808.48
2019-04-30T00:28:46.354Z,100814.28
2019-04-30T00:31:23.503Z,100808.77
2019-04-30T00:33:52.642Z,100803.74
2019-04-30T00:36:29.067Z,100805.15
2019-04-30T00:38:59.636Z,100813.83
2019-04-30T00:41:32.263Z,100806.56
2019-04-30T00:44:05.400Z,100800.09
2019-04-30T00:46:38.116Z,100804.47
2019-04-30T00:49:18.559Z,100797.33
2019-04-30T00:51:49.892Z,100804.30
2019-04-30T00:54:27.990Z,100805.63
2019-04-30T00:57:03.784Z,100799.09
2019-04-30T00:59:31.726Z,100807.31
2019-04-30T01:02:29.157Z,100809.70
2019-04-30T01:05:05.320Z,100810.88
2019-04-30T01:07:35.299Z,100810.66
2019-04-30T01:10:08.713Z,100812.56
2019-04-30T01:12:47.105Z,100813.28
2019-04-30T01:15:15.734Z,100818.27
2019-04-30T01:17:51.016Z,100818.41
2019-04-30T01:20:31.359Z,100815.72
2019-04-30T01:23:03.033Z,100820.55
2019-04-30T01:25:33.698Z,100813.28
2019-04-30T01:28:06.295Z,100817.27
2019-04-30T01:30:39.423Z,100823.13
2019-04-30T01:33:11.906Z,100820.55
2019-04-30T01:35:44.955Z,100814.08
2019-04-30T01:38:18.932Z,100815.49
2019-04-30T01:40:51.884Z,100808.83
2019-04-30T01:43:31.586Z,100814.00
2019-04-30T01:46:01.741Z,100815.33
2019-04-30T01:48:33.683Z,100810.80
2019-04-30T01:51:08.841Z,100814.95
2019-04-30T01:53:44.800Z,100814.03
2019-04-30T01:56:28.932Z,100824.63
2019-04-30T01:59:20.432Z,100829.72
2019-04-30T02:01:53.355Z,100833.02
2019-04-30T02:04:25.957Z,100841.57
2019-04-30T02:06:59.230Z,100840.31
2019-04-30T02:09:31.815Z,100837.61
2019-04-30T02:12:05.664Z,100836.72
2019-04-30T02:14:39.487Z,100831.02
2019-04-30T02:17:12.092Z,100839.79
2019-04-30T02:19:54.183Z,100836.66
2019-04-30T02:22:19.127Z,100841.59
2019-04-30T02:24:52.114Z,100849.60
2019-04-30T02:27:24.582Z,100837.89
2019-04-30T02:29:56.969Z,100836.26
2019-04-30T02:32:30.547Z,100843.05
2019-04-30T02:35:10.554Z,100843.43
2019-04-30T02:38:01.727Z,100849.99
2019-04-30T02:40:39.267Z,100849.45
2019-04-30T02:43:14.006Z,100841.49
2019-04-30T02:45:50.477Z,100836.62
2019-04-30T02:48:29.263Z,100833.48
2019-04-30T02:51:04.574Z,100842.39
2019-04-30T02:54:24.709Z,100842.07
2019-04-30T02:57:12.397Z,100853.22
2019-04-30T03:00:02.630Z,100850.76
2019-04-30T03:02:35.391Z,100844.23
2019-04-30T03:05:10.204Z,100848.70
2019-04-30T03:07:43.243Z,100855.86
2019-04-30T03:10:16.023Z,100850.95
2019-04-30T03:12:49.891Z,100873.78
2019-04-30T03:15:23.132Z,100878.47
2019-04-30T03:18:23.364Z,100883.05
2019-04-30T03:21:09.626Z,100894.42
2019-04-30T03:23:41.159Z,100902.14
2019-04-30T03:26:16.070Z,100906.72
2019-04-30T03:28:49.413Z,100916.55
2019-04-30T03:31:22.863Z,100914.55
2019-04-30T03:33:55.659Z,100918.98
2019-04-30T03:36:32.181Z,100916.65
2019-04-30T03:39:02.265Z,100909.86
2019-04-30T03:41:35.207Z,100910.09
2019-04-30T03:44:21.084Z,100913.11
2019-04-30T03:46:42.201Z,100910.20
2019-04-30T03:49:14.605Z,100909.13
2019-04-30T03:51:49.697Z,100900.80
2019-04-30T03:54:21.610Z,100894.01
2019-04-30T03:56:57.052Z,100894.01
2019-04-30T03:59:30.216Z,100896.59
2019-04-30T04:02:13.157Z,100899.39
2019-04-30T04:05:04.288Z,100901.27
2019-04-30T04:08:00.412Z,100902.30
2019-04-30T04:10:52.921Z,100896.78
2019-04-30T04:13:25.766Z,100905.08
2019-04-30T04:15:59.894Z,100906.14
2019-04-30T04:18:32.479Z,100902.86
2019-04-30T04:21:12.160Z,100903.66
2019-04-30T04:23:39.909Z,100895.55
2019-04-30T04:26:12.743Z,100894.70
2019-04-30T04:28:45.360Z,100894.23
2019-04-30T04:31:19.271Z,100899.11
2019-04-30T04:33:52.771Z,100915.87
2019-04-30T04:36:25.399Z,100921.48
2019-04-30T04:39:00.191Z,100934.57
2019-04-30T04:41:31.962Z,100947.34
2019-04-30T04:44:04.496Z,100952.13
2019-04-30T04:46:37.093Z,100952.31
2019-04-30T04:49:09.642Z,100939.38
2019-04-30T04:51:42.541Z,100937.73
2019-04-30T04:54:15.481Z,100939.69
2019-04-30T04:56:50.450Z,100947.77
2019-04-30T04:59:21.998Z,100957.05
2019-04-30T05:01:54.581Z,100965.87
2019-04-30T05:04:29.746Z,100964.22
2019-04-30T05:07:01.303Z,100964.48
2019-04-30T05:09:33.935Z,100965.80
2019-04-30T05:12:06.351Z,100941.73
2019-04-30T05:14:39.024Z,100935.08
2019-04-30T05:17:11.910Z,100936.26
2019-04-30T05:19:44.511Z,100933.69
2019-04-30T05:22:18.959Z,100944.67
2019-04-30T05:24:51.914Z,100939.38
2019-04-30T05:27:24.463Z,100944.66
2019-04-30T05:29:57.020Z,100928.19
2019-04-30T05:32:30.003Z,100939.62
2019-04-30T05:35:02.646Z,100926.09
2019-04-30T05:37:35.628Z,100926.53
2019-04-30T05:40:09.255Z,100936.67
2019-04-30T05:42:42.119Z,100933.45
2019-04-30T05:45:16.367Z,100935.67
2019-04-30T05:47:50.606Z,100937.50
2019-04-30T05:50:23.621Z,100933.81
2019-04-30T05:52:56.138Z,100932.38
2019-04-30T05:55:29.443Z,100935.37
2019-04-30T05:58:02.158Z,100942.84
2019-04-30T06:00:34.814Z,100937.53
2019-04-30T06:03:09.311Z,100943.99
2019-04-30T06:05:42.010Z,100942.51
2019-04-30T06:08:19.225Z,100947.52
2019-04-30T06:11:05.787Z,100944.42
2019-04-30T06:13:58.867Z,100936.38
2019-04-30T06:16:31.545Z,100936.06
2019-04-30T06:19:04.089Z,100931.25
2019-04-30T06:21:36.613Z,100940.12
2019-04-30T06:24:10.714Z,100943.49
2019-04-30T06:26:43.658Z,100952.37
2019-04-30T06:29:16.116Z,100960.42
2019-04-30T06:31:48.743Z,100964.89
2019-04-30T06:34:21.602Z,100960.13
2019-04-30T06:36:56.907Z,100958.59
2019-04-30T06:39:29.066Z,100946.86
2019-04-30T06:42:06.445Z,100951.44
2019-04-30T06:44:39.282Z,100948.87
2019-04-30T06:47:11.139Z,100949.25
2019-04-30T06:49:44.592Z,100950.42
2019-04-30T06:52:20.821Z,100956.03
2019-04-30T06:54:51.265Z,100949.42
2019-04-30T06:57:23.791Z,100959.56
2019-04-30T06:59:56.426Z,100954.38
2019-04-30T07:02:30.899Z,100947.73
2019-04-30T07:05:03.774Z,100941.30
2019-04-30T07:07:41.180Z,100937.19
2019-04-30T07:10:25.789Z,100933.23
2019-04-30T07:13:18.800Z,100942.32
2019-04-30T07:15:51.469Z,100946.74
2019-04-30T07:18:24.417Z,100937.50
2019-04-30T07:20:58.725Z,100934.65
2019-04-30T07:23:31.430Z,100945.45
2019-04-30T07:26:04.397Z,100936.10
2019-04-30T07:28:44.749Z,100941.94
2019-04-30T07:31:14.470Z,100933.53
2019-04-30T07:33:45.342Z,100938.50
2019-04-30T07:36:19.514Z,100928.11
2019-04-30T07:38:56.383Z,100933.53
2019-04-30T07:41:26.267Z,100936.60
2019-04-30T07:43:59.357Z,100941.73
2019-04-30T07:46:35.111Z,100943.48
2019-04-30T07:49:06.281Z,100945.46
2019-04-30T07:51:41.236Z,100946.34
2019-04-30T07:54:12.832Z,100949.13
2019-04-30T07:56:45.331Z,100949.47
2019-04-30T07:59:19.981Z,100947.02
2019-04-30T08:02:06.272Z,100944.45
2019-04-30T08:04:47.928Z,100933.09
2019-04-30T08:07:20.779Z,100925.28
2019-04-30T08:09:53.531Z,100927.37
2019-04-30T08:12:33.655Z,100927.94
2019-04-30T08:15:00.250Z,100932.91
2019-04-30T08:17:32.717Z,100931.20
2019-04-30T08:20:05.211Z,100927.41
2019-04-30T08:22:40.827Z,100920.75
2019-04-30T08:25:11.828Z,100920.83
2019-04-30T08:27:44.391Z,100925.98
2019-04-30T08:30:25.533Z,100913.98
2019-04-30T08:32:51.202Z,100904.63
2019-04-30T08:35:23.946Z,100906.09
2019-04-30T08:37:56.452Z,100904.27
2019-04-30T08:40:29.751Z,100915.64
2019-04-30T08:43:02.327Z,100917.27
2019-04-30T08:45:34.941Z,100917.03
2019-04-30T08:48:09.117Z,100923.12
2019-04-30T08:50:41.733Z,100917.42
2019-04-30T08:53:26.456Z,100919.08
2019-04-30T08:55:50.159Z,100922.13
2019-04-30T08:58:29.052Z,100924.39
2019-04-30T09:01:01.961Z,100929.09
2019-04-30T09:03:34.598Z,100935.23
2019-04-30T09:06:15.026Z,100940.97
2019-04-30T09:08:50.382Z,100938.74
2019-04-30T09:11:30.148Z,100939.80
2019-04-30T09:13:58.492Z,100929.66
2019-04-30T09:16:31.095Z,100933.56
2019-04-30T09:19:03.860Z,100926.87
2019-04-30T09:21:38.572Z,100931.59
2019-04-30T09:24:10.811Z,100934.27
2019-04-30T09:26:43.666Z,100938.56
2019-04-30T09:29:16.548Z,100947.38
2019-04-30T09:31:49.412Z,100942.00
2019-04-30T09:34:22.153Z,100953.25
2019-04-30T09:36:54.942Z,100952.91
2019-04-30T09:39:29.589Z,100951.50
2019-04-30T09:42:02.283Z,100956.56
2019-04-30T09:44:34.814Z,100950.28
2019-04-30T09:47:09.503Z,100947.47
2019-04-30T09:49:42.453Z,100939.54
2019-04-30T09:52:15.031Z,100951.95
2019-04-30T09:54:49.668Z,100949.92
2019-04-30T09:57:21.851Z,100944.39
2019-04-30T09:59:54.388Z,100955.77
2019-04-30T10:02:29.060Z,100951.89
2019-04-30T10:05:02.369Z,100939.11
2019-04-30T10:07:35.073Z,100944.97
2019-04-30T10:10:09.487Z,100936.65
2019-04-30T10:12:42.620Z,100935.44
2019-04-30T10:15:25.162Z,100932.98
2019-04-30T10:17:58.489Z,100933.81
2019-04-30T10:20:44.027Z,100934.81
2019-04-30T10:23:16.480Z,100937.06
2019-04-30T10:25:49.112Z,100932.00
2019-04-30T10:28:21.478Z,100932.20
2019-04-30T10:30:54.018Z,100934.86
2019-04-30T10:33:28.558Z,100942.17
2019-04-30T10:36:01.051Z,100935.05
2019-04-30T10:38:33.594Z,100937.30
2019-04-30T10:41:08.671Z,100939.52
2019-04-30T10:43:41.060Z,100932.63
2019-04-30T10:46:14.087Z,100936.47
2019-04-30T10:48:50.060Z,100930.98
2019-04-30T10:51:22.739Z,100926.16
2019-04-30T10:53:59.029Z,100924.33
2019-04-30T10:56:35.192Z,100922.48
2019-04-30T10:59:08.260Z,100920.66
2019-04-30T11:01:40.908Z,100920.64
2019-04-30T11:04:14.916Z,100924.91
2019-04-30T11:06:47.624Z,100926.73
2019-04-30T11:09:20.655Z,100929.17
2019-04-30T11:11:53.428Z,100929.33
2019-04-30T11:14:26.069Z,100926.48
2019-04-30T11:16:59.928Z,100926.23
2019-04-30T11:19:33.336Z,100927.66
2019-04-30T11:22:06.381Z,100926.41
2019-04-30T11:24:54.095Z,100927.17
2019-04-30T11:27:13.968Z,100921.91
2019-04-30T11:29:46.864Z,100923.73
2019-04-30T11:32:24.557Z,100923.55
2019-04-30T11:34:57.160Z,100916.64
2019-04-30T11:37:30.036Z,100918.10
2019-04-30T11:40:02.572Z,100924.42
2019-04-30T11:42:35.154Z,100929.70
2019-04-30T11:45:08.918Z,100923.39
2019-04-30T11:47:52.874Z,100920.95
2019-04-30T11:50:18.417Z,100915.05
2019-04-30T11:52:51.004Z,100915.88
2019-04-30T11:55:23.627Z,100917.58
2019-04-30T11:57:56.525Z,100907.63
2019-04-30T12:00:34.565Z,100911.12
2019-04-30T12:03:09.019Z,100907.48
2019-04-30T12:05:41.894Z,100910.53
2019-04-30T12:08:19.501Z,100905.83
2019-04-30T12:11:02.130Z,100904.20
2019-04-30T12:13:35.232Z,100906.65
2019-04-30T12:16:08.793Z,100902.98
2019-04-30T12:18:41.559Z,100895.26
2019-04-30T12:21:14.474Z,100888.52
2019-04-30T12:23:47.044Z,100890.52
2019-04-30T12:26:20.264Z,100896.61
2019-04-30T12:28:53.271Z,100905.70
2019-04-30T12:31:25.863Z,100913.80
2019-04-30T12:33:58.895Z,100918.45
2019-04-30T12:36:31.773Z,100922.88
2019-04-30T12:39:04.390Z,100918.61
2019-04-30T12:41:40.381Z,100911.30
2019-04-30T12:44:11.027Z,100915.14
2019-04-30T12:46:43.727Z,100908.05
2019-04-30T12:49:16.331Z,100914.13
2019-04-30T12:51:58.760Z,100921.44
2019-04-30T12:54:46.554Z,100920.80
2019-04-30T12:57:26.195Z,100923.17
2019-04-30T13:00:00.431Z,100915.27
2019-04-30T13:02:33.308Z,100915.21
2019-04-30T13:05:06.196Z,100914.38
2019-04-30T13:07:40.235Z,100910.70
2019-04-30T13:10:13.385Z,100904.82
2019-04-30T13:12:46.673Z,100901.58
2019-04-30T13:15:19.748Z,100903.62
2019-04-30T13:17:52.412Z,100900.99
2019-04-30T13:20:26.179Z,100899.78
2019-04-30T13:22:58.926Z,100901.78
2019-04-30T13:25:35.508Z,100906.03
2019-04-30T13:28:12.919Z,100904.02
2019-04-30T13:30:45.418Z,100905.44
2019-04-30T13:33:41.480Z,100898.52
2019-04-30T13:36:14.183Z,100899.77
2019-04-30T13:39:11.080Z,100893.07
2019-04-30T13:42:15.948Z,100891.70
2019-04-30T13:44:43.124Z,100890.89
2019-04-30T13:47:15.784Z,100885.44
2019-04-30T13:49:49.499Z,100880.19
2019-04-30T13:52:22.075Z,100876.35
2019-04-30T13:54:55.044Z,100882.44
2019-04-30T13:57:27.639Z,100877.54
2019-04-30T14:00:00.216Z,100882.56
2019-04-30T14:02:36.147Z,100885.53
2019-04-30T14:05:15.297Z,100877.20
2019-04-30T14:07:55.679Z,100877.18
2019-04-30T14:10:29.436Z,100874.66
2019-04-30T14:13:04.000Z,100878.24
2019-04-30T14:15:37.354Z,100884.86
2019-04-30T14:18:10.702Z,100893.48
2019-04-30T14:20:43.707Z,100893.63
2019-04-30T14:23:18.486Z,100885.45
2019-04-30T14:25:56.712Z,100885.56
2019-04-30T14:28:25.440Z,100890.97
2019-04-30T14:30:57.954Z,100889.46
2019-04-30T14:33:30.488Z,100891.63
2019-04-30T14:36:04.693Z,100883.91
2019-04-30T14:38:40.525Z,100874.73
2019-04-30T14:41:12.261Z,100878.73
2019-04-30T14:43:51.096Z,100881.11
2019-04-30T14:46:34.777Z,100875.20
2019-04-30T14:49:34.164Z,100870.92
2019-04-30T14:52:09.195Z,100871.23
2019-04-30T14:54:55.065Z,100873.25
2019-04-30T14:57:51.091Z,100875.69
2019-04-30T15:00:59.234Z,100879.78
2019-04-30T15:03:32.135Z,100881.19
2019-04-30T15:06:04.714Z,100882.14
2019-04-30T15:08:38.957Z,100885.77
2019-04-30T15:11:11.912Z,100890.78
2019-04-30T15:13:44.540Z,100887.52
2019-04-30T15:16:17.508Z,100879.00
2019-04-30T15:18:50.466Z,100876.94
2019-04-30T15:21:23.611Z,100874.69
2019-04-30T15:24:09.460Z,100866.38
2019-04-30T15:26:42.330Z,100866.09
2019-04-30T15:29:16.248Z,100856.74
2019-04-30T15:31:49.404Z,100846.95
2019-04-30T15:34:21.813Z,100851.99
2019-04-30T15:36:54.997Z,100851.92
2019-04-30T15:39:39.319Z,100848.26
2019-04-30T15:42:20.753Z,100843.36
2019-04-30T15:44:53.098Z,100848.22
2019-04-30T15:47:25.896Z,100865.36
2019-04-30T15:49:59.603Z,100858.48
2019-04-30T15:52:34.950Z,100868.81
2019-04-30T15:55:09.216Z,100871.27
2019-04-30T15:58:07.015Z,100874.50
2019-04-30T16:00:39.855Z,100874.94
2019-04-30T16:03:18.457Z,100884.62
2019-04-30T16:05:51.968Z,100887.66
2019-04-30T16:08:39.092Z,100888.64
2019-04-30T16:11:22.155Z,100885.77
2019-04-30T16:14:19.744Z,100886.70
2019-04-30T16:17:06.245Z,100881.81
2019-04-30T16:19:38.926Z,100884.95
2019-04-30T16:22:11.609Z,100896.80
2019-04-30T16:24:44.187Z,100890.70
2019-04-30T16:27:19.025Z,100897.69
2019-04-30T16:29:51.247Z,100903.08
2019-04-30T16:32:24.705Z,100897.59
2019-04-30T16:34:59.133Z,100900.59
2019-04-30T16:37:31.950Z,100892.30
2019-04-30T16:40:05.297Z,100884.79
2019-04-30T16:42:38.967Z,100884.13
2019-04-30T16:45:11.781Z,100882.67
2019-04-30T16:47:44.166Z,100889.08
2019-04-30T16:50:18.723Z,100886.59
2019-04-30T16:52:51.163Z,100888.36
2019-04-30T16:55:23.715Z,100886.91
2019-04-30T16:58:00.570Z,100891.31
2019-04-30T17:00:39.411Z,100897.13
2019-04-30T17:03:19.622Z,100904.69
2019-04-30T17:06:01.350Z,100905.25
2019-04-30T17:08:55.339Z,100913.44
2019-04-30T17:11:44.704Z,100922.44
2019-04-30T17:14:18.195Z,100912.06
2019-04-30T17:16:50.652Z,100925.28
2019-04-30T17:19:23.240Z,100922.41
2019-04-30T17:21:55.815Z,100928.60
2019-04-30T17:24:30.124Z,100927.14
2019-04-30T17:27:16.193Z,100927.66
2019-04-30T17:29:37.104Z,100930.20
2019-04-30T17:32:10.651Z,100934.31
2019-04-30T17:34:43.105Z,100936.41
2019-04-30T17:37:16.011Z,100935.86
2019-04-30T17:39:50.954Z,100934.52
2019-04-30T17:42:23.567Z,100934.61
2019-04-30T17:44:59.421Z,100938.94
2019-04-30T17:47:31.857Z,100939.23
2019-04-30T17:50:04.488Z,100938.58
2019-04-30T17:52:37.249Z,100934.25
2019-04-30T17:55:10.250Z,100943.48
2019-04-30T17:57:43.031Z,100936.78
2019-04-30T18:00:22.051Z,100940.05
2019-04-30T18:02:51.384Z,100950.15
2019-04-30T18:05:23.834Z,100937.46
2019-04-30T18:07:56.555Z,100932.43
2019-04-30T18:10:29.191Z,100927.97
2019-04-30T18:13:01.816Z,100935.59
2019-04-30T18:15:34.272Z,100929.31
2019-04-30T18:18:32.759Z,100935.69
2019-04-30T18:21:16.204Z,100933.03
2019-04-30T18:24:10.008Z,100943.25
2019-04-30T18:26:49.522Z,100941.77
2019-04-30T18:29:22.041Z,100939.11
2019-04-30T18:31:54.878Z,100936.28
2019-04-30T18:34:29.154Z,100932.86
2019-04-30T18:37:01.430Z,100930.65
2019-04-30T18:39:34.142Z,100927.83
2019-04-30T18:42:06.779Z,100926.64
2019-04-30T18:44:39.320Z,100921.01
2019-04-30T18:47:11.712Z,100918.77
2019-04-30T18:49:44.717Z,100927.22
2019-04-30T18:52:18.830Z,100914.31
2019-04-30T18:54:51.687Z,100911.72
2019-04-30T18:57:24.095Z,100905.50
2019-04-30T18:59:56.643Z,100909.73
2019-04-30T19:02:29.148Z,100915.37
2019-04-30T19:05:01.645Z,100912.33
2019-04-30T19:07:39.752Z,100921.81
2019-04-30T19:10:22.468Z,100921.59
2019-04-30T19:13:04.794Z,100917.58
2019-04-30T19:16:17.887Z,100916.17
2019-04-30T19:18:40.193Z,100915.37
2019-04-30T19:21:15.088Z,100917.28
2019-04-30T19:23:48.735Z,100913.80
2019-04-30T19:26:22.739Z,100923.47
2019-04-30T19:28:56.583Z,100929.83
2019-04-30T19:31:29.860Z,100929.13
2019-04-30T19:34:02.965Z,100927.14
2019-04-30T19:36:37.676Z,100931.71
2019-04-30T19:39:12.141Z,100931.94
2019-04-30T19:41:45.231Z,100928.44
2019-04-30T19:44:22.948Z,100930.01
2019-04-30T19:46:58.578Z,100922.16
2019-04-30T19:49:31.606Z,100932.37
2019-04-30T19:52:08.469Z,100929.48
2019-04-30T19:54:39.895Z,100936.45
2019-04-30T19:57:12.629Z,100936.84
2019-04-30T19:59:45.462Z,100933.34
2019-04-30T20:02:19.123Z,100930.67
2019-04-30T20:04:52.308Z,100932.81
2019-04-30T20:07:24.821Z,100923.10
2019-04-30T20:10:03.541Z,100926.07
2019-04-30T20:12:31.681Z,100930.88
2019-04-30T20:15:16.413Z,100932.89
2019-04-30T20:17:39.952Z,100928.81
2019-04-30T20:20:13.377Z,100926.12
2019-04-30T20:22:46.537Z,100933.54
2019-04-30T20:25:19.115Z,100929.89
2019-04-30T20:27:52.259Z,100928.86
2019-04-30T20:30:24.687Z,100930.98
2019-04-30T20:32:59.407Z,100924.10
2019-04-30T20:35:32.066Z,100929.05
2019-04-30T20:38:21.803Z,100931.67
2019-04-30T20:41:00.252Z,100929.58
2019-04-30T20:43:28.680Z,100928.09
2019-04-30T20:46:01.621Z,100931.86
2019-04-30T20:48:34.139Z,100936.80
2019-04-30T20:51:07.111Z,100941.38
2019-04-30T20:53:41.069Z,100941.30
2019-04-30T20:56:13.570Z,100942.63
2019-04-30T20:58:57.181Z,100951.41
2019-04-30T21:01:21.013Z,100946.39
2019-04-30T21:03:54.173Z,100947.19
2019-04-30T21:06:26.765Z,100945.44
2019-04-30T21:08:59.549Z,100941.78
2019-04-30T21:11:33.179Z,100934.75
2019-04-30T21:14:06.134Z,100931.94
2019-04-30T21:16:38.646Z,100932.54
2019-04-30T21:19:11.714Z,100931.70
2019-04-30T21:21:44.214Z,100935.70
2019-04-30T21:24:17.476Z,100938.28
2019-04-30T21:26:50.316Z,100941.70
2019-04-30T21:29:23.108Z,100940.91
2019-04-30T21:32:08.800Z,100936.45
2019-04-30T21:34:54.559Z,100935.99
2019-04-30T21:37:30.092Z,100936.37
2019-04-30T21:40:02.684Z,100932.15
2019-04-30T21:42:35.276Z,100933.90
2019-04-30T21:45:08.536Z,100928.04
2019-04-30T21:47:40.999Z,100926.41
2019-04-30T21:50:14.747Z,100924.77
2019-04-30T21:52:49.482Z,100923.28
2019-04-30T21:55:21.703Z,100912.77
2019-04-30T21:57:54.161Z,100913.11
2019-04-30T22:00:46.225Z,100909.50
2019-04-30T22:03:19.701Z,100910.22
2019-04-30T22:05:53.231Z,100909.19
2019-04-30T22:08:26.294Z,100907.92
2019-04-30T22:11:00.260Z,100905.11
2019-04-30T22:13:32.794Z,100906.52
2019-04-30T22:16:05.248Z,100902.78
2019-04-30T22:18:37.693Z,100903.50
2019-04-30T22:21:10.233Z,100905.66
2019-04-30T22:23:42.701Z,100893.95
2019-04-30T22:26:15.190Z,100900.06
2019-04-30T22:28:49.414Z,100898.95
2019-04-30T22:31:21.768Z,100897.80
2019-04-30T22:33:54.142Z,100895.47
2019-04-30T22:36:33.933Z,100888.31
2019-04-30T22:39:30.025Z,100891.05
2019-04-30T22:42:39.935Z,100883.12
2019-04-30T22:45:35.245Z,100876.95
2019-04-30T22:48:08.865Z,100874.16
2019-04-30T22:50:41.542Z,100865.31
2019-04-30T22:53:14.361Z,100865.69
2019-04-30T22:55:46.858Z,100872.02
2019-04-30T22:58:19.484Z,100866.31
2019-04-30T23:00:53.491Z,100867.85
2019-04-30T23:03:30.863Z,100865.75
2019-04-30T23:06:04.114Z,100863.55
2019-04-30T23:08:36.645Z,100871.28
2019-04-30T23:11:09.821Z,100869.19
2019-04-30T23:13:42.453Z,100868.95
2019-04-30T23:16:16.120Z,100862.06
2019-04-30T23:18:48.708Z,100859.63
2019-04-30T23:21:21.313Z,100848.49
2019-04-30T23:23:55.366Z,100851.91
2019-04-30T23:26:27.753Z,100843.24
2019-04-30T23:29:00.626Z,100841.61
2019-04-30T23:31:33.367Z,100843.61
2019-04-30T23:34:17.410Z,100849.00
2019-04-30T23:36:40.429Z,100850.41
2019-04-30T23:39:13.781Z,100847.23
2019-04-30T23:41:47.054Z,100847.09
2019-04-30T23:44:19.592Z,100842.62
2019-04-30T23:46:52.496Z,100845.90
2019-04-30T23:49:24.964Z,100843.55
2019-04-30T23:51:57.823Z,100836.73
2019-04-30T23:54:30.279Z,100837.79
2019-04-30T23:57:02.719Z,100836.38
2019-04-30T23:59:35.241Z,100836.16
